createdAt,value
2022-11-30T00:00:47.179Z,41.80
2022-11-30T00:06:58.567Z,42.50
2022-11-30T00:13:09.423Z,41.70
2022-11-30T00:19:20.661Z,40.80
2022-11-30T00:25:33.990Z,41.10
2022-11-30T00:31:44.870Z,41.20
2022-11-30T00:37:56.026Z,41.20
2022-11-30T00:44:14.436Z,41.80
2022-11-30T00:50:28.596Z,41.00
2022-11-30T00:56:42.202Z,40.50
2022-11-30T01:02:53.077Z,40.80
2022-11-30T01:09:05.505Z,40.80
2022-11-30T01:15:19.941Z,41.30
2022-11-30T01:21:32.451Z,41.20
2022-11-30T01:27:43.739Z,40.20
2022-11-30T01:34:00.181Z,40.30
2022-11-30T01:40:11.040Z,40.70
2022-11-30T01:46:43.118Z,41.00
2022-11-30T01:52:54.083Z,41.00
2022-11-30T01:59:07.149Z,41.00
2022-11-30T02:05:21.439Z,41.00
2022-11-30T02:11:34.021Z,41.10
2022-11-30T02:17:49.844Z,41.20
2022-11-30T02:24:40.319Z,41.10
2022-11-30T02:30:54.053Z,41.10
2022-11-30T02:37:10.538Z,41.30
2022-11-30T02:43:24.986Z,41.40
2022-11-30T02:49:44.705Z,41.30
2022-11-30T02:55:59.242Z,41.20
2022-11-30T03:02:09.721Z,41.20
2022-11-30T03:08:25.994Z,41.20
2022-11-30T03:14:41.906Z,41.20
2022-11-30T03:20:55.651Z,41.30
2022-11-30T03:27:10.387Z,42.10
2022-11-30T03:33:22.375Z,42.10
2022-11-30T03:39:34.118Z,42.10
2022-11-30T03:45:49.912Z,41.90
2022-11-30T03:52:09.304Z,41.60
2022-11-30T03:58:26.147Z,41.40
2022-11-30T04:04:37.988Z,41.30
2022-11-30T04:10:57.056Z,41.20
2022-11-30T04:17:08.696Z,41.20
2022-11-30T04:23:20.512Z,41.20
2022-11-30T04:29:34.332Z,41.00
2022-11-30T04:35:50.662Z,41.10
2022-11-30T04:42:09.137Z,41.20
2022-11-30T04:48:23.935Z,41.00
2022-11-30T04:54:40.222Z,41.00
2022-11-30T05:00:54.096Z,41.00
2022-11-30T05:07:10.607Z,41.10
2022-11-30T05:13:24.811Z,41.30
2022-11-30T05:19:39.182Z,41.20
2022-11-30T05:25:53.361Z,41.10
2022-11-30T05:32:06.633Z,41.10
2022-11-30T05:38:20.870Z,41.00
2022-11-30T05:44:34.493Z,41.20
2022-11-30T05:50:47.002Z,41.20
2022-11-30T05:56:58.074Z,41.20
2022-11-30T06:03:12.826Z,41.30
2022-11-30T06:09:23.688Z,41.40
2022-11-30T06:15:40.073Z,41.30
2022-11-30T06:21:54.768Z,41.30
2022-11-30T06:28:05.245Z,41.20
2022-11-30T06:34:21.338Z,41.20
2022-11-30T06:40:33.258Z,41.10
2022-11-30T06:46:45.047Z,41.00
2022-11-30T06:52:56.909Z,41.10
2022-11-30T06:59:16.728Z,41.20
2022-11-30T07:05:30.146Z,41.20
2022-11-30T07:11:41.374Z,41.10
2022-11-30T07:17:52.229Z,41.10
2022-11-30T07:24:21.262Z,41.50
2022-11-30T07:30:31.486Z,41.80
2022-11-30T07:36:46.335Z,42.10
2022-11-30T07:43:04.257Z,41.80
2022-11-30T07:49:22.457Z,42.00
2022-11-30T07:55:36.480Z,42.20
2022-11-30T08:01:50.196Z,42.70
2022-11-30T08:07:59.139Z,42.00
2022-11-30T08:14:13.203Z,41.50
2022-11-30T08:20:24.705Z,41.70
2022-11-30T08:26:36.483Z,41.80
2022-11-30T08:32:47.689Z,41.80
2022-11-30T08:39:05.780Z,41.50
2022-11-30T08:45:18.950Z,41.20
2022-11-30T08:51:42.162Z,41.30
2022-11-30T08:57:47.948Z,41.40
2022-11-30T09:04:00.610Z,41.50
2022-11-30T09:10:13.812Z,41.10
2022-11-30T09:16:27.868Z,41.00
2022-11-30T09:22:43.420Z,41.10
2022-11-30T09:28:54.546Z,41.20
2022-11-30T09:35:12.590Z,41.30
2022-11-30T09:41:28.982Z,40.90
2022-11-30T09:47:45.421Z,41.00
2022-11-30T09:54:02.543Z,41.10
2022-11-30T10:00:19.383Z,41.10
2022-11-30T10:06:36.869Z,41.00
2022-11-30T10:12:52.713Z,40.80
2022-11-30T10:19:08.866Z,40.70
2022-11-30T10:25:22.143Z,40.90
2022-11-30T10:31:37.635Z,40.90
2022-11-30T10:37:50.959Z,40.80
2022-11-30T10:44:03.613Z,40.70
2022-11-30T10:50:21.819Z,40.80
2022-11-30T10:56:32.732Z,40.90
2022-11-30T11:02:45.947Z,40.90
2022-11-30T11:08:57.238Z,40.80
2022-11-30T11:15:19.246Z,40.80
2022-11-30T11:21:30.488Z,40.90
2022-11-30T11:34:08.094Z,40.80
2022-11-30T11:40:24.418Z,40.60
2022-11-30T11:46:37.696Z,40.70
2022-11-30T11:52:51.756Z,40.80
2022-11-30T11:59:06.289Z,40.70
2022-11-30T12:05:17.524Z,40.80
2022-11-30T12:11:32.678Z,40.80
2022-11-30T12:17:51.703Z,40.80
2022-11-30T12:24:28.344Z,40.80
2022-11-30T12:30:41.868Z,40.80
2022-11-30T12:36:57.347Z,40.80
2022-11-30T12:43:11.934Z,40.80
2022-11-30T12:49:35.556Z,40.80
2022-11-30T12:55:47.793Z,40.80
2022-11-30T13:02:10.499Z,40.80
2022-11-30T13:08:25.263Z,41.40
2022-11-30T13:14:36.258Z,40.80
2022-11-30T13:20:51.106Z,40.70
2022-11-30T13:27:08.111Z,40.60
2022-11-30T13:40:28.136Z,41.70
2022-11-30T13:46:42.650Z,41.70
2022-11-30T13:53:18.455Z,41.90
2022-11-30T13:59:50.755Z,41.20
2022-11-30T14:06:14.882Z,41.20
2022-11-30T14:19:29.000Z,42.00
2022-11-30T14:25:38.049Z,41.40
2022-11-30T14:31:58.097Z,41.40
2022-11-30T14:38:14.119Z,42.10
2022-11-30T14:44:32.532Z,41.90
2022-11-30T14:50:45.758Z,41.80
2022-11-30T14:57:01.674Z,41.40
2022-11-30T15:03:18.787Z,41.50
2022-11-30T15:09:34.212Z,41.90
2022-11-30T15:15:59.396Z,42.50
2022-11-30T15:22:14.584Z,42.30
2022-11-30T15:28:24.610Z,42.00
2022-11-30T15:34:40.041Z,41.50
2022-11-30T15:40:53.441Z,41.90
2022-11-30T15:47:07.895Z,42.20
2022-11-30T15:53:33.164Z,42.90
2022-11-30T15:59:45.339Z,42.50
2022-11-30T16:06:05.989Z,42.50
2022-11-30T16:12:19.522Z,41.90
2022-11-30T16:18:34.458Z,42.20
2022-11-30T16:24:48.656Z,42.40
2022-11-30T16:31:03.680Z,42.80
2022-11-30T16:37:17.991Z,42.60
2022-11-30T16:43:30.228Z,42.10
2022-11-30T16:49:40.894Z,42.00
2022-11-30T16:55:54.618Z,42.30
2022-11-30T17:02:05.935Z,42.80
2022-11-30T17:08:18.527Z,42.60
2022-11-30T17:14:30.565Z,41.90
2022-11-30T17:20:44.897Z,42.00
2022-11-30T17:26:56.983Z,42.20
2022-11-30T17:33:08.880Z,42.50
2022-11-30T17:39:22.705Z,43.50
2022-11-30T17:45:35.707Z,43.00
2022-11-30T17:51:46.429Z,43.30
2022-11-30T17:58:01.107Z,44.60
2022-11-30T18:04:14.426Z,44.30
2022-11-30T18:10:30.369Z,44.40
2022-11-30T18:16:41.806Z,43.60
2022-11-30T18:22:56.246Z,42.60
2022-11-30T18:29:12.623Z,42.80
2022-11-30T18:35:23.296Z,43.10
2022-11-30T18:41:33.438Z,43.40
2022-11-30T18:47:49.507Z,43.00
2022-11-30T18:54:08.311Z,42.10
2022-11-30T19:00:27.129Z,42.30
2022-11-30T19:06:38.253Z,42.40
2022-11-30T19:12:47.975Z,42.90
2022-11-30T19:19:00.032Z,42.40
2022-11-30T19:25:17.758Z,41.90
2022-11-30T19:31:26.757Z,41.40
2022-11-30T19:37:40.213Z,41.80
2022-11-30T19:43:55.791Z,42.00
2022-11-30T19:50:02.987Z,42.10
2022-11-30T19:56:15.671Z,41.70
2022-11-30T20:02:33.585Z,40.90
2022-11-30T20:08:45.752Z,40.90
2022-11-30T20:14:58.116Z,41.20
2022-11-30T20:21:18.983Z,41.50
2022-11-30T20:27:30.076Z,41.40
2022-11-30T20:33:41.399Z,41.00
2022-11-30T20:39:58.233Z,40.40
2022-11-30T20:46:18.285Z,40.30
2022-11-30T20:52:33.212Z,40.60
2022-11-30T20:58:48.795Z,40.70
2022-11-30T21:05:05.254Z,42.00
2022-11-30T21:11:14.596Z,41.40
2022-11-30T21:17:27.074Z,40.40
2022-11-30T21:23:35.998Z,40.70
2022-11-30T21:29:51.617Z,42.30
2022-11-30T21:36:06.715Z,42.30
2022-11-30T21:42:21.402Z,41.70
2022-11-30T21:48:38.600Z,40.90
2022-11-30T21:54:52.828Z,41.00
2022-11-30T22:01:08.004Z,41.20
2022-11-30T22:07:20.245Z,41.10
2022-11-30T22:13:37.224Z,40.30
2022-11-30T22:19:51.818Z,40.30
2022-11-30T22:26:17.660Z,40.60
2022-11-30T22:32:28.460Z,41.20
2022-11-30T22:38:38.676Z,41.30
2022-11-30T22:44:50.533Z,39.80
2022-11-30T22:51:04.495Z,40.00
2022-11-30T22:57:15.470Z,40.10
2022-11-30T23:03:32.631Z,40.10
2022-11-30T23:09:47.044Z,40.50
2022-11-30T23:16:05.188Z,40.60
2022-11-30T23:22:18.542Z,39.50
2022-11-30T23:28:29.756Z,40.00
2022-11-30T23:34:50.640Z,40.30
2022-11-30T23:41:03.320Z,40.50
2022-11-30T23:47:18.583Z,40.60
2022-11-30T23:53:29.209Z,39.60
2022-11-30T23:59:42.535Z,40.40
